Time;durP1;ratioP1;P1;durP2;ratioP2;P2;SDS_P1;SDS_P2;PMS_P1;PMS_P2;Temp;Humidity;BMP_temperature;BMP_pressure;BME280_temperature;BME280_humidity;BME280_pressure;Samples;Min_cycle;Max_cycle;Signal;HPM_P1;HPM_P2
2024/01/16 00:01:08;;;;;;;3.92;0.65;;;-0.10;99.90;;;;;;5011376;28;20037;-70
2024/01/16 00:03:34;;;;;;;0.00;0.00;;;-0.10;99.90;;;;;;5012051;28;20571;-70
2024/01/16 00:06:00;;;;;;;0.05;0.05;;;-0.10;99.90;;;;;;5014746;28;20065;-70
2024/01/16 00:08:27;;;;;;;0.10;0.10;;;-0.10;99.90;;;;;;5010797;28;20033;-70
2024/01/16 00:10:52;;;;;;;0.00;0.00;;;0.00;99.90;;;;;;5010358;28;20069;-70
2024/01/16 00:13:18;;;;;;;0.00;0.00;;;0.00;99.90;;;;;;5012522;28;20081;-70
2024/01/16 00:15:44;;;;;;;0.28;0.28;;;0.00;99.90;;;;;;5011811;28;20401;-70
2024/01/16 00:18:10;;;;;;;0.20;0.08;;;0.00;99.90;;;;;;5011438;28;20048;-69
2024/01/16 00:20:35;;;;;;;0.00;0.00;;;0.00;99.90;;;;;;5009922;28;20049;-70
2024/01/16 00:23:01;;;;;;;0.00;0.00;;;0.00;99.90;;;;;;5009389;28;20038;-69
2024/01/16 00:25:27;;;;;;;0.00;0.00;;;0.00;99.90;;;;;;5011216;28;20044;-70
2024/01/16 00:27:54;;;;;;;0.15;0.15;;;0.00;99.90;;;;;;5009712;28;20045;-69
2024/01/16 00:30:20;;;;;;;0.00;0.00;;;0.00;99.90;;;;;;5011826;28;20095;-70
2024/01/16 00:32:45;;;;;;;1.48;0.90;;;0.00;99.90;;;;;;5011254;28;20045;-69
2024/01/16 00:35:11;;;;;;;0.00;0.00;;;0.00;99.90;;;;;;5009861;28;20481;-70
2024/01/16 00:37:37;;;;;;;0.25;0.20;;;0.00;99.90;;;;;;5008909;28;20137;-70
2024/01/16 00:40:04;;;;;;;0.10;0.10;;;0.00;99.90;;;;;;5011500;28;20055;-70
2024/01/16 00:42:31;;;;;;;5.28;0.30;;;-0.10;99.90;;;;;;5009776;28;20103;-70
2024/01/16 00:44:58;;;;;;;0.00;0.00;;;0.00;99.90;;;;;;5017491;28;20059;-70
2024/01/16 00:47:24;;;;;;;1.55;0.35;;;-0.10;99.90;;;;;;5011681;28;20129;-70
2024/01/16 00:49:50;;;;;;;2.92;1.55;;;-0.10;99.90;;;;;;5011479;28;20405;-69
2024/01/16 00:52:15;;;;;;;0.00;0.00;;;0.00;99.90;;;;;;5010573;28;20291;-70
2024/01/16 00:54:42;;;;;;;0.00;0.00;;;0.00;99.90;;;;;;5011296;28;20401;-70
2024/01/16 00:57:08;;;;;;;0.00;0.00;;;0.00;99.90;;;;;;5011495;28;20053;-70
2024/01/16 00:59:34;;;;;;;1.00;0.20;;;0.00;99.90;;;;;;5013040;28;20408;-69
2024/01/16 01:01:59;;;;;;;0.00;0.00;;;0.00;99.90;;;;;;5003444;28;20503;-70
2024/01/16 01:04:25;;;;;;;0.22;0.22;;;0.00;99.90;;;;;;5010719;28;20112;-69
2024/01/16 01:06:51;;;;;;;0.00;0.00;;;0.00;99.90;;;;;;5016276;28;20127;-70
2024/01/16 01:09:17;;;;;;;0.50;0.00;;;0.00;99.90;;;;;;5012246;28;20115;-70
2024/01/16 01:11:43;;;;;;;1.08;0.22;;;0.00;99.90;;;;;;5011782;28;20037;-69
2024/01/16 01:14:09;;;;;;;0.00;0.00;;;0.00;99.90;;;;;;5011507;28;20099;-70
2024/01/16 01:16:34;;;;;;;0.65;0.65;;;-0.10;99.90;;;;;;4995379;28;20356;-70
2024/01/16 01:19:00;;;;;;;0.00;0.00;;;-0.10;99.90;;;;;;5017242;28;20048;-70
2024/01/16 01:21:26;;;;;;;0.00;0.00;;;-0.10;99.90;;;;;;5011429;28;20520;-69
2024/01/16 01:23:52;;;;;;;0.28;0.10;;;-0.20;99.90;;;;;;5009617;28;20453;-70
2024/01/16 01:26:19;;;;;;;0.00;0.00;;;-0.10;99.90;;;;;;5010112;28;20029;-70
2024/01/16 01:28:44;;;;;;;0.00;0.00;;;-0.20;99.90;;;;;;5010298;28;20041;-70
2024/01/16 01:31:13;;;;;;;1.33;0.45;;;-0.20;99.90;;;;;;5011331;28;20202;-70
2024/01/16 01:33:40;;;;;;;1.23;0.10;;;-0.20;99.90;;;;;;5027503;28;20037;-70
2024/01/16 01:36:06;;;;;;;0.00;0.00;;;-0.20;99.90;;;;;;5008940;28;20087;-70
2024/01/16 01:38:31;;;;;;;0.00;0.00;;;-0.20;99.90;;;;;;5007731;28;20041;-70
2024/01/16 01:40:57;;;;;;;0.20;0.10;;;-0.20;99.90;;;;;;5008113;28;20048;-70
2024/01/16 01:43:24;;;;;;;0.55;0.20;;;-0.20;99.90;;;;;;5010053;28;20144;-71
2024/01/16 01:46:02;;;;;;;0.00;0.00;;;-0.20;99.90;;;;;;5011208;28;20120;-70
2024/01/16 01:48:28;;;;;;;0.00;0.00;;;-0.10;99.90;;;;;;5009136;28;20058;-70
2024/01/16 01:50:54;;;;;;;0.05;0.00;;;0.00;99.90;;;;;;5011169;28;20139;-70
2024/01/16 01:53:19;;;;;;;2.70;0.68;;;0.10;99.90;;;;;;5008512;28;20053;-70
2024/01/16 01:55:46;;;;;;;0.10;0.10;;;0.20;99.90;;;;;;4994391;28;20053;-70
2024/01/16 01:58:12;;;;;;;0.00;0.00;;;0.30;99.90;;;;;;5008050;28;20045;-69
2024/01/16 02:00:38;;;;;;;0.00;0.00;;;0.30;99.90;;;;;;5010279;28;20046;-70
2024/01/16 02:03:07;;;;;;;0.10;0.10;;;0.30;99.90;;;;;;5007828;28;20056;-69
2024/01/16 02:05:33;;;;;;;0.25;0.10;;;0.30;99.90;;;;;;5011005;28;20515;-69
2024/01/16 02:08:00;;;;;;;0.08;0.08;;;0.30;99.90;;;;;;5013227;28;20037;-71
2024/01/16 02:10:26;;;;;;;0.28;0.17;;;0.30;99.90;;;;;;5013534;28;20072;-71
2024/01/16 02:12:52;;;;;;;3.97;0.15;;;0.30;99.90;;;;;;5012410;28;20038;-70
2024/01/16 02:15:17;;;;;;;0.00;0.00;;;0.20;99.90;;;;;;5013155;28;20139;-70
2024/01/16 02:17:43;;;;;;;0.00;0.00;;;0.20;99.90;;;;;;5013820;28;20033;-70
2024/01/16 02:20:09;;;;;;;0.15;0.10;;;0.20;99.90;;;;;;5013927;28;20038;-70
2024/01/16 02:22:36;;;;;;;0.28;0.28;;;0.20;99.90;;;;;;5012661;28;20072;-71
2024/01/16 02:25:02;;;;;;;0.30;0.15;;;0.10;99.90;;;;;;4996019;28;20504;-70
2024/01/16 02:27:28;;;;;;;0.00;0.00;;;0.10;99.90;;;;;;5010295;28;20034;-69
2024/01/16 02:29:54;;;;;;;0.00;0.00;;;0.10;99.90;;;;;;5009004;28;20045;-69
2024/01/16 02:32:19;;;;;;;0.40;0.25;;;0.10;99.90;;;;;;5010749;28;20418;-69
2024/01/16 02:34:45;;;;;;;0.00;0.00;;;0.10;99.90;;;;;;5021391;28;20470;-69
2024/01/16 02:37:11;;;;;;;0.05;0.05;;;0.10;99.90;;;;;;5012551;28;20128;-69
2024/01/16 02:39:36;;;;;;;0.00;0.00;;;0.10;99.90;;;;;;4997820;28;20044;-70
2024/01/16 02:42:02;;;;;;;0.00;0.00;;;0.10;99.90;;;;;;5014108;28;20485;-70
2024/01/16 02:44:28;;;;;;;0.00;0.00;;;0.10;99.90;;;;;;5010469;28;20161;-69
2024/01/16 02:46:54;;;;;;;0.00;0.00;;;0.10;99.90;;;;;;5014085;28;20504;-69
2024/01/16 02:49:20;;;;;;;6.13;0.70;;;0.10;99.90;;;;;;4993242;28;20037;-70
2024/01/16 02:51:46;;;;;;;0.20;0.00;;;0.20;99.90;;;;;;5011087;28;20052;-70
2024/01/16 02:54:11;;;;;;;0.00;0.00;;;0.30;99.90;;;;;;5011845;28;20130;-69
2024/01/16 02:56:37;;;;;;;0.85;0.40;;;0.30;99.90;;;;;;5008492;28;20061;-69
2024/01/16 02:59:03;;;;;;;0.00;0.00;;;0.30;99.90;;;;;;5013050;28;20073;-70
2024/01/16 03:01:29;;;;;;;10.48;0.63;;;0.20;99.90;;;;;;5013192;28;20075;-70
2024/01/16 03:03:54;;;;;;;0.20;0.20;;;0.20;99.90;;;;;;5013856;28;20053;-70
2024/01/16 03:06:24;;;;;;;0.00;0.00;;;0.20;99.90;;;;;;5010777;28;20280;-70
2024/01/16 03:08:51;;;;;;;0.08;0.03;;;0.20;99.90;;;;;;5008815;28;20596;-70
2024/01/16 03:11:17;;;;;;;0.00;0.00;;;0.10;99.90;;;;;;5013429;28;20516;-70
2024/01/16 03:13:43;;;;;;;0.00;0.00;;;0.10;99.90;;;;;;5010844;28;20037;-69
2024/01/16 03:16:10;;;;;;;0.00;0.00;;;0.10;99.90;;;;;;5010790;28;20041;-69
2024/01/16 03:18:37;;;;;;;0.13;0.13;;;0.10;99.90;;;;;;5015944;28;20052;-70
2024/01/16 03:21:04;;;;;;;0.00;0.00;;;0.10;99.90;;;;;;5013036;28;20057;-69
2024/01/16 03:23:30;;;;;;;0.00;0.00;;;0.10;99.90;;;;;;5025543;28;20046;-69
2024/01/16 03:25:57;;;;;;;0.10;0.10;;;0.00;99.90;;;;;;5013417;28;20044;-69
2024/01/16 03:28:23;;;;;;;0.70;0.15;;;0.10;99.90;;;;;;5017790;28;20068;-70
2024/01/16 03:30:49;;;;;;;0.00;0.00;;;0.00;99.90;;;;;;5011182;28;20040;-69
2024/01/16 03:33:15;;;;;;;0.55;0.55;;;0.00;99.90;;;;;;5011969;28;20464;-70
2024/01/16 03:35:40;;;;;;;0.10;0.00;;;0.00;99.90;;;;;;5007169;28;20046;-70
2024/01/16 03:38:06;;;;;;;0.00;0.00;;;-0.10;99.90;;;;;;5011451;28;20103;-70
2024/01/16 03:40:34;;;;;;;1.98;0.88;;;0.00;99.90;;;;;;5024523;28;20073;-70
2024/01/16 03:43:00;;;;;;;0.20;0.08;;;0.00;99.90;;;;;;5024662;28;20048;-70
2024/01/16 03:45:26;;;;;;;0.00;0.00;;;0.00;99.90;;;;;;5006896;28;20034;-69
2024/01/16 03:47:52;;;;;;;0.00;0.00;;;0.00;99.90;;;;;;5010547;28;20092;-69
2024/01/16 03:50:17;;;;;;;0.00;0.00;;;0.10;99.90;;;;;;5012576;28;20041;-70
2024/01/16 03:52:43;;;;;;;0.05;0.05;;;0.10;99.90;;;;;;5011120;28;20034;-69
2024/01/16 03:55:09;;;;;;;4.60;0.77;;;0.10;99.90;;;;;;5012665;28;20057;-69
2024/01/16 03:57:35;;;;;;;0.43;0.10;;;0.10;99.90;;;;;;5010899;28;20112;-69
2024/01/16 04:00:00;;;;;;;0.00;0.00;;;0.10;99.90;;;;;;5013157;28;20505;-69
2024/01/16 04:02:26;;;;;;;0.90;0.30;;;0.10;99.90;;;;;;5012473;28;20128;-70
2024/01/16 04:04:52;;;;;;;0.93;0.17;;;0.10;99.90;;;;;;5012293;28;20441;-69
2024/01/16 04:07:18;;;;;;;1.65;1.55;;;0.10;99.90;;;;;;5011175;28;20037;-69
2024/01/16 04:09:43;;;;;;;0.00;0.00;;;0.10;99.90;;;;;;5014060;28;20436;-70
2024/01/16 04:12:10;;;;;;;0.00;0.00;;;0.20;99.90;;;;;;5012356;28;20377;-70
2024/01/16 04:14:36;;;;;;;0.00;0.00;;;0.20;99.90;;;;;;5012026;28;20136;-69
2024/01/16 04:17:02;;;;;;;10.02;0.57;;;0.20;99.90;;;;;;4997389;28;20076;-69
2024/01/16 04:19:28;;;;;;;0.00;0.00;;;0.20;99.90;;;;;;4992853;28;20504;-70
2024/01/16 04:21:54;;;;;;;0.00;0.00;;;0.30;99.90;;;;;;5008713;28;20041;-70
2024/01/16 04:24:19;;;;;;;0.00;0.00;;;0.30;99.90;;;;;;4999267;28;20515;-69
2024/01/16 04:26:45;;;;;;;0.00;0.00;;;0.30;99.90;;;;;;4999849;28;20103;-69
2024/01/16 04:29:12;;;;;;;0.00;0.00;;;0.30;99.90;;;;;;5011983;28;20120;-69
2024/01/16 04:31:43;;;;;;;2.53;0.30;;;0.20;99.90;;;;;;5011275;28;20045;-69
2024/01/16 04:34:09;;;;;;;1.13;0.70;;;0.30;99.90;;;;;;4995421;28;20103;-70
2024/01/16 04:36:35;;;;;;;0.00;0.00;;;0.30;99.90;;;;;;4992473;28;20038;-70
2024/01/16 04:39:00;;;;;;;0.00;0.00;;;0.30;99.90;;;;;;5012439;28;20044;-69
2024/01/16 04:41:26;;;;;;;0.15;0.15;;;0.20;99.90;;;;;;5010767;28;20107;-69
2024/01/16 04:43:52;;;;;;;0.00;0.00;;;0.20;99.90;;;;;;4989630;28;20430;-69
2024/01/16 04:46:18;;;;;;;1.08;0.05;;;0.30;99.90;;;;;;5010996;28;20089;-70
2024/01/16 04:48:43;;;;;;;0.00;0.00;;;0.30;99.90;;;;;;4996005;28;20465;-70
2024/01/16 04:51:09;;;;;;;0.03;0.03;;;0.30;99.90;;;;;;5011374;28;20030;-70
2024/01/16 04:53:35;;;;;;;10.57;0.47;;;0.20;99.90;;;;;;4995457;28;20045;-70
2024/01/16 04:56:01;;;;;;;0.08;0.00;;;0.20;99.90;;;;;;4995051;28;20417;-69
2024/01/16 04:58:26;;;;;;;2.63;0.10;;;0.20;99.90;;;;;;4991971;28;20048;-70
2024/01/16 05:00:52;;;;;;;0.00;0.00;;;0.30;99.90;;;;;;4990323;28;20125;-72
2024/01/16 05:03:18;;;;;;;0.70;0.10;;;0.20;99.90;;;;;;4974981;28;20176;-70
2024/01/16 05:05:43;;;;;;;0.00;0.00;;;0.20;99.90;;;;;;4993459;28;20033;-70
2024/01/16 05:08:09;;;;;;;0.00;0.00;;;0.20;99.90;;;;;;4974383;28;20045;-70
2024/01/16 05:10:35;;;;;;;0.43;0.10;;;0.10;99.90;;;;;;4991774;28;20436;-70
2024/01/16 05:13:01;;;;;;;0.00;0.00;;;0.20;99.90;;;;;;4985343;28;20038;-70
2024/01/16 05:15:26;;;;;;;0.10;0.10;;;0.20;99.90;;;;;;4991395;28;20049;-71
2024/01/16 05:17:53;;;;;;;0.08;0.08;;;0.20;99.90;;;;;;4991493;28;20033;-71
2024/01/16 05:20:19;;;;;;;3.03;0.10;;;0.20;99.90;;;;;;5007847;28;20045;-70
2024/01/16 05:22:45;;;;;;;0.10;0.10;;;0.20;99.90;;;;;;4990644;28;20078;-70
2024/01/16 05:25:10;;;;;;;1.65;0.10;;;0.20;99.90;;;;;;4991209;28;20120;-71
2024/01/16 05:27:36;;;;;;;0.10;0.10;;;0.20;99.90;;;;;;4991763;28;20121;-70
2024/01/16 05:30:02;;;;;;;0.00;0.00;;;0.20;99.90;;;;;;4989255;28;20042;-70
2024/01/16 05:32:27;;;;;;;0.00;0.00;;;0.20;99.90;;;;;;4990789;28;20034;-70
2024/01/16 05:34:53;;;;;;;0.13;0.03;;;0.20;99.90;;;;;;4990909;28;20058;-70
2024/01/16 05:37:19;;;;;;;0.00;0.00;;;0.20;99.90;;;;;;4965874;28;20364;-70
2024/01/16 05:39:45;;;;;;;0.20;0.20;;;0.20;99.90;;;;;;4991431;28;20513;-70
2024/01/16 05:42:12;;;;;;;5.80;0.70;;;0.20;99.90;;;;;;4991640;28;20050;-70
2024/01/16 05:44:38;;;;;;;0.00;0.00;;;0.30;99.90;;;;;;4990771;28;20409;-70
2024/01/16 05:47:04;;;;;;;0.00;0.00;;;0.30;99.90;;;;;;4975751;28;20042;-70
2024/01/16 05:49:30;;;;;;;1.90;0.20;;;0.30;99.90;;;;;;4989630;28;20038;-70
2024/01/16 05:51:56;;;;;;;0.00;0.00;;;0.30;99.90;;;;;;4985225;28;20306;-70
2024/01/16 05:54:21;;;;;;;1.70;0.32;;;0.30;99.90;;;;;;5010399;28;20056;-71
2024/01/16 05:56:47;;;;;;;0.00;0.00;;;0.40;99.90;;;;;;5007814;28;20046;-70
2024/01/16 05:59:13;;;;;;;0.45;0.10;;;0.40;99.90;;;;;;5010395;28;20425;-70
2024/01/16 06:01:38;;;;;;;3.83;0.22;;;0.50;99.90;;;;;;5010972;28;20042;-70
2024/01/16 06:04:04;;;;;;;15.95;1.08;;;0.50;99.90;;;;;;5009219;28;20047;-70
2024/01/16 06:06:30;;;;;;;0.10;0.10;;;0.40;99.90;;;;;;5024028;28;20342;-71
2024/01/16 06:08:57;;;;;;;0.63;0.10;;;0.40;99.90;;;;;;4996508;28;20496;-70
2024/01/16 06:11:32;;;;;;;0.10;0.10;;;0.40;99.90;;;;;;5009641;28;20037;-71
2024/01/16 06:13:59;;;;;;;2.03;0.03;;;0.40;99.90;;;;;;5020716;28;20069;-71
2024/01/16 06:16:25;;;;;;;0.00;0.00;;;0.40;99.90;;;;;;5008588;28;20105;-71
2024/01/16 06:18:51;;;;;;;0.20;0.15;;;0.40;99.90;;;;;;5009446;28;20050;-71
2024/01/16 06:21:17;;;;;;;0.00;0.00;;;0.40;99.90;;;;;;5008025;28;20049;-70
2024/01/16 06:23:43;;;;;;;0.00;0.00;;;0.40;99.90;;;;;;5009203;28;20393;-70
2024/01/16 06:26:09;;;;;;;0.00;0.00;;;0.40;99.90;;;;;;5008368;28;20071;-70
2024/01/16 06:28:36;;;;;;;0.00;0.00;;;0.40;99.90;;;;;;5010086;28;20099;-70
2024/01/16 06:31:01;;;;;;;0.00;0.00;;;0.40;99.90;;;;;;5008549;28;20049;-70
2024/01/16 06:33:27;;;;;;;0.10;0.10;;;0.40;99.90;;;;;;4994974;28;20052;-70
2024/01/16 06:35:55;;;;;;;0.77;0.38;;;0.40;99.90;;;;;;5017262;28;20033;-70
2024/01/16 06:38:21;;;;;;;0.57;0.20;;;0.40;99.90;;;;;;5007396;28;20052;-70
2024/01/16 06:40:46;;;;;;;0.00;0.00;;;0.40;99.90;;;;;;5009057;28;20037;-70
2024/01/16 06:43:15;;;;;;;0.28;0.13;;;0.30;99.90;;;;;;5026430;28;20041;-70
2024/01/16 06:45:44;;;;;;;0.20;0.10;;;0.40;99.90;;;;;;5012415;28;20037;-71
2024/01/16 06:48:10;;;;;;;0.00;0.00;;;0.40;99.90;;;;;;5012246;28;20041;-70
2024/01/16 06:50:36;;;;;;;0.10;0.10;;;0.30;99.90;;;;;;5011973;28;20067;-70
2024/01/16 06:53:02;;;;;;;0.40;0.40;;;0.40;99.90;;;;;;5013368;28;20069;-70
2024/01/16 06:55:27;;;;;;;0.52;0.38;;;0.40;99.90;;;;;;5011938;28;20045;-70
2024/01/16 06:57:53;;;;;;;0.10;0.10;;;0.50;99.90;;;;;;5011644;28;20045;-70
2024/01/16 07:00:21;;;;;;;0.60;0.15;;;0.50;99.90;;;;;;5018840;28;20037;-70
2024/01/16 07:02:46;;;;;;;0.13;0.13;;;0.50;99.90;;;;;;4996741;28;20041;-71
2024/01/16 07:05:12;;;;;;;0.32;0.22;;;0.40;99.90;;;;;;5012129;28;20473;-71
2024/01/16 07:07:38;;;;;;;0.10;0.10;;;0.50;99.90;;;;;;4994726;28;20148;-70
2024/01/16 07:10:07;;;;;;;4.53;0.43;;;0.40;99.90;;;;;;5010392;28;20068;-71
2024/01/16 07:12:33;;;;;;;7.78;0.20;;;0.50;99.90;;;;;;5009885;28;20041;-71
2024/01/16 07:14:59;;;;;;;0.55;0.52;;;0.50;99.90;;;;;;5011822;28;20084;-70
2024/01/16 07:17:25;;;;;;;0.88;0.25;;;0.60;99.90;;;;;;5012195;28;20042;-71
2024/01/16 07:19:51;;;;;;;0.98;0.52;;;0.50;99.90;;;;;;5012716;28;20157;-71
2024/01/16 07:22:17;;;;;;;0.82;0.30;;;0.60;99.90;;;;;;4995833;28;20076;-70
2024/01/16 07:24:43;;;;;;;0.10;0.10;;;0.60;99.90;;;;;;5010082;28;20040;-70
2024/01/16 07:27:08;;;;;;;0.45;0.20;;;0.60;99.90;;;;;;5012842;28;20472;-70
2024/01/16 07:29:34;;;;;;;0.55;0.40;;;0.60;99.90;;;;;;5014833;28;20116;-70
2024/01/16 07:32:00;;;;;;;0.10;0.10;;;0.60;99.90;;;;;;5005493;28;20444;-71
2024/01/16 07:34:25;;;;;;;0.32;0.32;;;0.60;99.90;;;;;;4995041;28;20390;-70
2024/01/16 07:36:51;;;;;;;0.00;0.00;;;0.60;99.90;;;;;;5012669;28;20045;-71
2024/01/16 07:39:17;;;;;;;1.95;0.90;;;0.70;99.90;;;;;;5002291;28;20050;-70
2024/01/16 07:41:42;;;;;;;0.20;0.10;;;0.60;99.90;;;;;;4995455;28;20064;-70
2024/01/16 07:44:08;;;;;;;2.83;0.95;;;0.60;99.90;;;;;;5009693;28;20033;-70
2024/01/16 07:46:34;;;;;;;0.45;0.32;;;0.60;99.90;;;;;;5012436;28;20037;-71
2024/01/16 07:49:00;;;;;;;0.30;0.22;;;0.60;99.90;;;;;;5012753;28;20151;-71
2024/01/16 07:51:26;;;;;;;0.80;0.30;;;0.60;99.90;;;;;;5003333;28;20034;-71
2024/01/16 07:54:06;;;;;;;0.45;0.40;;;0.50;99.90;;;;;;5010995;28;20588;-70
2024/01/16 07:56:33;;;;;;;1.08;0.47;;;0.60;99.90;;;;;;5018825;28;20496;-71
2024/01/16 07:58:59;;;;;;;1.17;0.57;;;0.60;99.90;;;;;;5011692;28;20041;-71
2024/01/16 08:01:25;;;;;;;0.10;0.10;;;0.60;99.90;;;;;;4994931;28;20405;-70
2024/01/16 08:03:51;;;;;;;5.15;0.35;;;0.70;99.90;;;;;;5012233;28;20057;-70
2024/01/16 08:06:16;;;;;;;0.80;0.13;;;0.70;99.90;;;;;;5009004;28;20049;-71
2024/01/16 08:08:42;;;;;;;0.65;0.52;;;0.70;99.90;;;;;;5010866;28;20038;-71
2024/01/16 08:11:08;;;;;;;0.10;0.10;;;0.70;99.90;;;;;;5009864;28;20413;-71
2024/01/16 08:13:33;;;;;;;2.50;0.45;;;0.70;99.90;;;;;;5010567;28;20069;-71
2024/01/16 08:16:00;;;;;;;0.20;0.20;;;0.70;99.90;;;;;;4994829;28;20037;-71
2024/01/16 08:18:26;;;;;;;0.47;0.30;;;0.70;99.90;;;;;;5010919;28;20049;-71
2024/01/16 08:20:52;;;;;;;0.65;0.50;;;0.70;99.90;;;;;;5010849;28;20045;-71
2024/01/16 08:23:17;;;;;;;0.60;0.50;;;0.80;99.90;;;;;;4994840;28;20381;-71
2024/01/16 08:25:43;;;;;;;0.68;0.38;;;0.80;99.90;;;;;;4996400;28;20042;-71
2024/01/16 08:28:10;;;;;;;1.20;0.82;;;0.90;99.90;;;;;;5011695;28;20033;-71
2024/01/16 08:30:36;;;;;;;1.27;1.17;;;1.00;99.90;;;;;;5009942;28;20046;-71
2024/01/16 08:33:02;;;;;;;0.38;0.17;;;1.00;99.90;;;;;;5010307;28;20390;-71
2024/01/16 08:35:28;;;;;;;1.60;0.68;;;1.00;99.90;;;;;;5011940;28;20036;-71
2024/01/16 08:37:53;;;;;;;0.17;0.13;;;1.00;99.90;;;;;;5010876;28;20072;-71
2024/01/16 08:40:19;;;;;;;0.85;0.45;;;1.00;99.90;;;;;;4995159;28;20044;-71
2024/01/16 08:42:45;;;;;;;0.43;0.28;;;1.10;99.90;;;;;;4995195;28;20475;-71
2024/01/16 08:45:11;;;;;;;0.90;0.80;;;1.10;99.90;;;;;;5011332;28;20449;-71
2024/01/16 08:47:37;;;;;;;0.88;0.52;;;1.20;99.90;;;;;;5011412;28;20034;-71
2024/01/16 08:50:03;;;;;;;0.32;0.30;;;1.30;99.90;;;;;;5014958;28;20046;-71
2024/01/16 08:52:29;;;;;;;0.90;0.65;;;1.30;99.90;;;;;;5021191;28;20040;-71
2024/01/16 08:54:54;;;;;;;0.52;0.47;;;1.40;99.90;;;;;;4995080;28;20420;-71
2024/01/16 08:57:20;;;;;;;0.30;0.30;;;1.40;99.90;;;;;;4993276;28;20045;-71
2024/01/16 08:59:46;;;;;;;0.82;0.45;;;1.40;99.90;;;;;;4999165;28;20052;-70
2024/01/16 09:02:12;;;;;;;0.65;0.40;;;1.40;99.90;;;;;;5000541;28;20042;-71
2024/01/16 09:04:37;;;;;;;2.55;0.43;;;1.40;99.90;;;;;;5015146;28;20044;-70
2024/01/16 09:07:04;;;;;;;6.65;0.38;;;1.50;99.90;;;;;;5019824;28;20041;-71
2024/01/16 09:09:30;;;;;;;0.30;0.30;;;1.50;99.90;;;;;;5002554;28;20089;-71
2024/01/16 09:11:57;;;;;;;4.95;0.85;;;1.50;99.90;;;;;;5010859;28;20049;-71
2024/01/16 09:14:23;;;;;;;0.47;0.38;;;1.60;99.90;;;;;;4995094;28;20370;-71
2024/01/16 09:16:49;;;;;;;0.30;0.20;;;1.50;99.90;;;;;;5016865;28;20336;-71
2024/01/16 09:19:15;;;;;;;3.78;0.50;;;1.50;99.90;;;;;;5000858;28;20461;-71
2024/01/16 09:21:40;;;;;;;4.57;0.63;;;1.60;99.90;;;;;;5015891;28;20042;-72
2024/01/16 09:24:06;;;;;;;0.85;0.65;;;1.60;99.90;;;;;;5008474;28;20107;-70
2024/01/16 09:26:32;;;;;;;0.55;0.45;;;1.60;99.90;;;;;;5011729;28;20054;-71
2024/01/16 09:28:58;;;;;;;1.15;0.75;;;1.60;99.90;;;;;;5004021;28;20073;-70
2024/01/16 09:31:23;;;;;;;0.88;0.73;;;1.60;99.90;;;;;;5010911;28;20052;-70
2024/01/16 09:33:49;;;;;;;1.33;1.13;;;1.70;99.90;;;;;;5001161;28;20038;-70
2024/01/16 09:36:15;;;;;;;3.70;0.85;;;1.70;99.90;;;;;;5004994;28;20041;-70
2024/01/16 09:38:41;;;;;;;0.57;0.57;;;1.80;99.90;;;;;;5010088;28;20120;-70
2024/01/16 09:41:07;;;;;;;0.70;0.63;;;1.80;99.90;;;;;;4998802;28;20129;-70
2024/01/16 09:43:33;;;;;;;3.65;0.85;;;1.80;99.90;;;;;;4990318;28;20401;-70
2024/01/16 09:46:04;;;;;;;1.20;0.90;;;1.90;99.90;;;;;;5007772;28;20108;-70
2024/01/16 09:48:31;;;;;;;1.52;1.10;;;1.80;99.90;;;;;;4990930;28;20082;-69
2024/01/16 09:50:57;;;;;;;0.90;0.60;;;1.80;99.90;;;;;;5006342;28;20044;-70
2024/01/16 09:53:23;;;;;;;0.75;0.52;;;1.80;99.90;;;;;;5010302;28;20078;-69
2024/01/16 09:55:52;;;;;;;3.10;1.48;;;1.80;99.90;;;;;;5008990;28;20053;-69
2024/01/16 09:58:20;;;;;;;1.20;1.10;;;1.90;99.90;;;;;;5007252;28;20050;-70
2024/01/16 10:00:46;;;;;;;1.70;0.80;;;1.90;99.90;;;;;;5012116;28;20080;-69
2024/01/16 10:03:14;;;;;;;0.82;0.70;;;1.90;99.90;;;;;;5012059;28;20534;-70
2024/01/16 10:05:44;;;;;;;0.95;0.68;;;1.80;99.90;;;;;;5003302;28;20042;-70
2024/01/16 10:08:10;;;;;;;2.65;1.52;;;1.80;99.90;;;;;;5004960;28;20041;-69
2024/01/16 10:10:35;;;;;;;1.58;1.48;;;1.80;99.90;;;;;;5010872;28;20068;-69
2024/01/16 10:13:02;;;;;;;3.60;0.52;;;1.80;99.90;;;;;;4996070;28;20049;-69
2024/01/16 10:15:28;;;;;;;0.63;0.63;;;1.80;99.90;;;;;;5008295;28;20080;-69
2024/01/16 10:17:54;;;;;;;1.35;1.08;;;1.90;99.90;;;;;;4996804;28;20521;-70
2024/01/16 10:20:33;;;;;;;2.65;1.00;;;1.90;99.90;;;;;;5009258;28;20030;-69
2024/01/16 10:22:59;;;;;;;0.63;0.38;;;1.90;99.90;;;;;;5010581;28;20113;-69
2024/01/16 10:25:24;;;;;;;0.85;0.85;;;2.00;99.90;;;;;;5009896;28;20136;-70
2024/01/16 10:28:04;;;;;;;0.50;0.20;;;2.00;99.90;;;;;;5011829;28;20042;-70
2024/01/16 10:30:30;;;;;;;0.45;0.40;;;2.00;99.90;;;;;;5009142;28;20212;-69
2024/01/16 10:33:13;;;;;;;0.10;0.08;;;2.10;99.90;;;;;;4981702;28;20128;-69
2024/01/16 10:35:38;;;;;;;0.10;0.10;;;2.10;99.90;;;;;;5000044;28;20109;-69
2024/01/16 10:38:04;;;;;;;0.20;0.10;;;2.10;99.90;;;;;;5014417;28;20184;-69
2024/01/16 10:40:31;;;;;;;0.45;0.28;;;2.10;99.90;;;;;;5006664;28;20101;-69
2024/01/16 10:43:03;;;;;;;0.00;0.00;;;2.10;99.90;;;;;;5026363;28;20044;-70
2024/01/16 10:45:29;;;;;;;0.10;0.05;;;2.10;99.90;;;;;;5019537;28;20042;-69
2024/01/16 10:48:06;;;;;;;0.00;0.00;;;2.10;99.90;;;;;;5024373;28;20342;-69
2024/01/16 10:50:33;;;;;;;0.20;0.20;;;2.20;99.90;;;;;;5010342;28;20061;-69
2024/01/16 10:53:04;;;;;;;0.00;0.00;;;2.20;99.90;;;;;;5021736;28;20038;-69
2024/01/16 10:55:33;;;;;;;0.80;0.30;;;2.20;99.90;;;;;;5007751;28;20046;-68
2024/01/16 10:58:04;;;;;;;0.75;0.25;;;2.20;99.90;;;;;;5003214;28;20405;-69
2024/01/16 11:00:33;;;;;;;1.20;0.20;;;2.10;99.90;;;;;;5007290;28;20034;-69
2024/01/16 11:03:05;;;;;;;0.25;0.10;;;2.20;99.90;;;;;;5024163;28;20038;-68
2024/01/16 11:05:33;;;;;;;0.00;0.00;;;2.20;99.90;;;;;;5010628;28;20049;-69
2024/01/16 11:08:06;;;;;;;7.97;0.93;;;2.20;99.90;;;;;;5003432;28;20034;-68
2024/01/16 11:10:32;;;;;;;0.00;0.00;;;2.10;99.90;;;;;;5008644;28;20501;-68
2024/01/16 11:13:02;;;;;;;0.00;0.00;;;2.10;99.90;;;;;;5014811;28;20052;-69
2024/01/16 11:15:28;;;;;;;1.35;0.20;;;2.00;99.90;;;;;;5007484;28;20038;-68
2024/01/16 11:17:56;;;;;;;0.00;0.00;;;2.00;99.90;;;;;;5011281;28;20034;-69
2024/01/16 11:20:22;;;;;;;0.00;0.00;;;2.00;99.90;;;;;;5013653;28;20049;-69
2024/01/16 11:22:50;;;;;;;0.45;0.13;;;1.90;99.90;;;;;;5006909;28;20157;-69
2024/01/16 11:25:18;;;;;;;0.00;0.00;;;1.90;99.90;;;;;;5010391;28;20054;-68
2024/01/16 11:27:50;;;;;;;0.55;0.10;;;1.90;99.90;;;;;;4981648;28;20033;-68
2024/01/16 11:30:29;;;;;;;0.10;0.00;;;1.80;99.90;;;;;;5002869;28;20116;-68
2024/01/16 11:32:55;;;;;;;0.03;0.03;;;1.80;99.90;;;;;;5010800;28;20037;-68
2024/01/16 11:35:40;;;;;;;0.57;0.10;;;1.80;99.90;;;;;;5002406;28;20048;-68
2024/01/16 11:38:18;;;;;;;4.97;0.30;;;1.80;99.90;;;;;;5002281;28;20469;-68
2024/01/16 11:40:45;;;;;;;0.50;0.08;;;1.80;99.90;;;;;;5007246;28;20087;-68
2024/01/16 11:43:33;;;;;;;14.35;1.00;;;1.80;99.90;;;;;;4996857;28;20060;-68
2024/01/16 11:46:02;;;;;;;0.00;0.00;;;1.80;99.90;;;;;;5028568;28;20041;-68
2024/01/16 11:48:28;;;;;;;2.90;0.43;;;1.90;99.90;;;;;;5001304;28;20092;-68
2024/01/16 11:50:54;;;;;;;0.00;0.00;;;1.90;99.90;;;;;;5006321;28;20442;-68
2024/01/16 11:53:38;;;;;;;0.00;0.00;;;1.90;99.90;;;;;;5007972;28;20513;-68
2024/01/16 11:56:18;;;;;;;0.20;0.13;;;1.90;99.90;;;;;;5010183;28;20057;-68
2024/01/16 11:59:15;;;;;;;0.22;0.10;;;1.90;99.90;;;;;;5005507;28;20108;-68
2024/01/16 12:01:45;;;;;;;0.32;0.32;;;2.00;99.90;;;;;;5004705;28;20045;-69
2024/01/16 12:04:10;;;;;;;4.85;0.60;;;2.00;99.90;;;;;;5007748;28;20180;-68
2024/01/16 12:06:40;;;;;;;1.20;0.30;;;2.00;99.90;;;;;;4996885;28;20499;-69
2024/01/16 12:09:17;;;;;;;0.95;0.35;;;2.00;99.90;;;;;;5000326;28;20052;-68
2024/01/16 12:11:45;;;;;;;0.35;0.20;;;2.00;99.90;;;;;;5011062;28;20041;-68
2024/01/16 12:14:14;;;;;;;0.60;0.25;;;2.10;99.90;;;;;;5002533;28;20104;-70
2024/01/16 12:16:40;;;;;;;0.30;0.30;;;2.10;99.90;;;;;;5010611;28;20108;-69
2024/01/16 12:19:10;;;;;;;1.48;0.82;;;2.10;99.90;;;;;;5011594;28;20041;-69
2024/01/16 12:21:39;;;;;;;2.92;0.50;;;2.20;99.90;;;;;;5017455;28;20068;-69
2024/01/16 12:24:05;;;;;;;1.88;0.35;;;2.20;99.90;;;;;;5015734;28;20052;-70
2024/01/16 12:26:31;;;;;;;1.00;0.60;;;2.20;99.90;;;;;;5009512;28;20034;-69
2024/01/16 12:28:57;;;;;;;0.88;0.47;;;2.30;99.90;;;;;;5011031;28;20187;-69
2024/01/16 12:31:24;;;;;;;2.42;1.08;;;2.20;99.90;;;;;;5001381;28;20585;-68
2024/01/16 12:33:53;;;;;;;0.98;0.52;;;2.20;99.90;;;;;;5012396;28;20045;-70
2024/01/16 12:36:19;;;;;;;1.42;0.75;;;2.20;99.90;;;;;;5007067;28;20490;-69
2024/01/16 12:38:44;;;;;;;4.90;1.30;;;2.20;99.90;;;;;;5013690;28;20052;-69
2024/01/16 12:41:12;;;;;;;0.30;0.30;;;2.20;99.90;;;;;;5008333;28;20146;-69
2024/01/16 12:43:38;;;;;;;1.70;0.52;;;2.20;99.90;;;;;;5012157;28;20041;-69
2024/01/16 12:46:06;;;;;;;0.77;0.38;;;2.20;99.90;;;;;;5014200;28;20160;-69
2024/01/16 12:48:32;;;;;;;1.02;0.60;;;2.20;99.90;;;;;;5009018;28;20041;-69
2024/01/16 12:51:05;;;;;;;0.88;0.30;;;2.20;99.90;;;;;;5003416;28;20048;-69
2024/01/16 12:53:31;;;;;;;1.13;0.97;;;2.20;99.90;;;;;;5020238;28;20587;-69